sensor_id;sensor_type;location;lat;lon;timestamp;pressure;altitude;pressure_sealevel;temperature;humidity
75045;BME280;63614;56.026;35.960;2024-01-06T00:02:23;98705.91;;;-17.22;63.48
75045;BME280;63614;56.026;35.960;2024-01-06T00:04:49;98701.56;;;-17.14;63.60
75045;BME280;63614;56.026;35.960;2024-01-06T00:07:15;98694.97;;;-17.15;63.96
75045;BME280;63614;56.026;35.960;2024-01-06T00:09:41;98708.19;;;-17.13;63.92
75045;BME280;63614;56.026;35.960;2024-01-06T00:12:07;98703.44;;;-17.24;63.97
75045;BME280;63614;56.026;35.960;2024-01-06T00:14:34;98702.34;;;-17.12;64.31
75045;BME280;63614;56.026;35.960;2024-01-06T00:17:00;98709.88;;;-17.15;64.09
75045;BME280;63614;56.026;35.960;2024-01-06T00:19:26;98709.25;;;-17.25;63.43
75045;BME280;63614;56.026;35.960;2024-01-06T00:21:52;98712.47;;;-17.20;64.13
75045;BME280;63614;56.026;35.960;2024-01-06T00:24:18;98717.50;;;-17.21;64.20
75045;BME280;63614;56.026;35.960;2024-01-06T00:26:43;98719.72;;;-17.10;64.49
75045;BME280;63614;56.026;35.960;2024-01-06T00:29:10;98724.31;;;-17.32;63.80
75045;BME280;63614;56.026;35.960;2024-01-06T00:31:37;98726.91;;;-17.37;65.11
75045;BME280;63614;56.026;35.960;2024-01-06T00:34:04;98721.13;;;-17.39;65.03
75045;BME280;63614;56.026;35.960;2024-01-06T00:36:30;98719.16;;;-17.23;64.25
75045;BME280;63614;56.026;35.960;2024-01-06T00:38:56;98734.13;;;-17.26;65.23
75045;BME280;63614;56.026;35.960;2024-01-06T00:41:22;98736.44;;;-17.17;64.80
75045;BME280;63614;56.026;35.960;2024-01-06T00:43:48;98740.84;;;-17.30;65.06
75045;BME280;63614;56.026;35.960;2024-01-06T00:46:14;98731.97;;;-17.42;65.83
75045;BME280;63614;56.026;35.960;2024-01-06T00:48:39;98724.56;;;-17.45;65.79
75045;BME280;63614;56.026;35.960;2024-01-06T00:51:05;98732.75;;;-17.40;66.19
75045;BME280;63614;56.026;35.960;2024-01-06T00:53:31;98733.44;;;-17.33;65.79
75045;BME280;63614;56.026;35.960;2024-01-06T00:55:57;98740.84;;;-17.30;65.29
75045;BME280;63614;56.026;35.960;2024-01-06T00:58:23;98733.41;;;-17.31;65.31
75045;BME280;63614;56.026;35.960;2024-01-06T01:00:49;98738.34;;;-17.30;65.27
75045;BME280;63614;56.026;35.960;2024-01-06T01:03:15;98735.03;;;-17.29;65.37
75045;BME280;63614;56.026;35.960;2024-01-06T01:05:41;98734.44;;;-17.40;65.68
75045;BME280;63614;56.026;35.960;2024-01-06T01:08:07;98743.31;;;-17.30;65.42
75045;BME280;63614;56.026;35.960;2024-01-06T01:10:32;98729.19;;;-17.28;65.84
75045;BME280;63614;56.026;35.960;2024-01-06T01:12:58;98727.22;;;-17.12;65.21
75045;BME280;63614;56.026;35.960;2024-01-06T01:15:24;98732.06;;;-17.06;64.62
75045;BME280;63614;56.026;35.960;2024-01-06T01:17:50;98716.13;;;-16.95;64.83
75045;BME280;63614;56.026;35.960;2024-01-06T01:20:16;98721.09;;;-16.95;64.21
75045;BME280;63614;56.026;35.960;2024-01-06T01:22:41;98720.13;;;-16.90;63.78
75045;BME280;63614;56.026;35.960;2024-01-06T01:25:07;98729.03;;;-17.19;64.40
75045;BME280;63614;56.026;35.960;2024-01-06T01:27:34;98720.69;;;-17.16;65.14
75045;BME280;63614;56.026;35.960;2024-01-06T01:30:00;98726.59;;;-17.22;65.43
75045;BME280;63614;56.026;35.960;2024-01-06T01:32:26;98723.94;;;-17.14;65.47
75045;BME280;63614;56.026;35.960;2024-01-06T01:34:52;98723.28;;;-17.22;65.63
75045;BME280;63614;56.026;35.960;2024-01-06T01:37:17;98730.69;;;-17.19;64.77
75045;BME280;63614;56.026;35.960;2024-01-06T01:39:43;98718.16;;;-17.13;65.26
75045;BME280;63614;56.026;35.960;2024-01-06T01:42:09;98726.13;;;-16.98;64.45
75045;BME280;63614;56.026;35.960;2024-01-06T01:44:35;98727.78;;;-16.99;64.97
75045;BME280;63614;56.026;35.960;2024-01-06T01:47:02;98721.66;;;-16.84;64.79
75045;BME280;63614;56.026;35.960;2024-01-06T01:49:28;98728.59;;;-16.97;64.25
75045;BME280;63614;56.026;35.960;2024-01-06T01:51:54;98721.25;;;-17.03;64.62
75045;BME280;63614;56.026;35.960;2024-01-06T01:54:20;98725.63;;;-17.14;64.68
75045;BME280;63614;56.026;35.960;2024-01-06T01:56:46;98721.38;;;-17.09;65.26
75045;BME280;63614;56.026;35.960;2024-01-06T01:59:13;98726.44;;;-17.14;64.56
75045;BME280;63614;56.026;35.960;2024-01-06T02:01:42;98717.97;;;-17.04;64.34
75045;BME280;63614;56.026;35.960;2024-01-06T02:04:09;98720.31;;;-16.99;64.56
75045;BME280;63614;56.026;35.960;2024-01-06T02:06:35;98721.13;;;-16.97;64.76
75045;BME280;63614;56.026;35.960;2024-01-06T02:09:01;98737.66;;;-16.96;64.57
75045;BME280;63614;56.026;35.960;2024-01-06T02:11:27;98745.22;;;-17.01;65.07
75045;BME280;63614;56.026;35.960;2024-01-06T02:13:56;98735.38;;;-17.04;64.93
75045;BME280;63614;56.026;35.960;2024-01-06T02:16:22;98724.69;;;-17.10;64.99
75045;BME280;63614;56.026;35.960;2024-01-06T02:18:48;98731.91;;;-16.98;65.10
75045;BME280;63614;56.026;35.960;2024-01-06T02:21:15;98726.63;;;-17.23;64.95
75045;BME280;63614;56.026;35.960;2024-01-06T02:23:41;98728.22;;;-17.19;65.15
75045;BME280;63614;56.026;35.960;2024-01-06T02:26:07;98721.22;;;-17.02;65.31
75045;BME280;63614;56.026;35.960;2024-01-06T02:28:33;98724.66;;;-17.09;64.88
75045;BME280;63614;56.026;35.960;2024-01-06T02:30:59;98722.69;;;-16.93;64.68
75045;BME280;63614;56.026;35.960;2024-01-06T02:33:24;98713.31;;;-16.83;64.64
75045;BME280;63614;56.026;35.960;2024-01-06T02:35:50;98710.69;;;-16.77;64.19
75045;BME280;63614;56.026;35.960;2024-01-06T02:38:17;98711.06;;;-16.91;63.96
75045;BME280;63614;56.026;35.960;2024-01-06T02:40:42;98713.81;;;-16.67;63.95
75045;BME280;63614;56.026;35.960;2024-01-06T02:43:09;98718.78;;;-16.67;63.66
75045;BME280;63614;56.026;35.960;2024-01-06T02:45:35;98705.69;;;-16.75;63.91
75045;BME280;63614;56.026;35.960;2024-01-06T02:48:01;98714.97;;;-16.82;64.36
75045;BME280;63614;56.026;35.960;2024-01-06T02:50:27;98709.72;;;-17.07;64.24
75045;BME280;63614;56.026;35.960;2024-01-06T02:52:53;98713.41;;;-16.86;64.34
75045;BME280;63614;56.026;35.960;2024-01-06T02:55:19;98706.81;;;-16.87;64.18
75045;BME280;63614;56.026;35.960;2024-01-06T02:57:45;98709.44;;;-16.93;64.47
75045;BME280;63614;56.026;35.960;2024-01-06T03:00:11;98706.00;;;-16.88;64.51
75045;BME280;63614;56.026;35.960;2024-01-06T03:02:38;98706.41;;;-17.06;64.19
75045;BME280;63614;56.026;35.960;2024-01-06T03:05:08;98713.78;;;-17.03;63.90
75045;BME280;63614;56.026;35.960;2024-01-06T03:07:34;98703.19;;;-17.11;63.84
75045;BME280;63614;56.026;35.960;2024-01-06T03:10:00;98699.47;;;-17.34;64.36
75045;BME280;63614;56.026;35.960;2024-01-06T03:12:26;98711.47;;;-17.53;64.77
75045;BME280;63614;56.026;35.960;2024-01-06T03:14:51;98704.91;;;-17.57;64.78
75045;BME280;63614;56.026;35.960;2024-01-06T03:17:18;98706.66;;;-17.61;65.39
75045;BME280;63614;56.026;35.960;2024-01-06T03:19:44;98707.88;;;-17.82;65.85
75045;BME280;63614;56.026;35.960;2024-01-06T03:22:10;98708.66;;;-17.80;65.76
75045;BME280;63614;56.026;35.960;2024-01-06T03:24:36;98710.38;;;-17.83;65.90
75045;BME280;63614;56.026;35.960;2024-01-06T03:27:03;98703.88;;;-17.89;65.93
75045;BME280;63614;56.026;35.960;2024-01-06T03:29:29;98702.78;;;-17.77;65.79
75045;BME280;63614;56.026;35.960;2024-01-06T03:31:55;98701.25;;;-17.83;65.46
75045;BME280;63614;56.026;35.960;2024-01-06T03:34:21;98702.16;;;-17.87;65.49
75045;BME280;63614;56.026;35.960;2024-01-06T03:36:47;98706.44;;;-17.94;65.09
75045;BME280;63614;56.026;35.960;2024-01-06T03:39:13;98708.81;;;-17.87;65.33
75045;BME280;63614;56.026;35.960;2024-01-06T03:41:39;98711.47;;;-17.98;65.38
75045;BME280;63614;56.026;35.960;2024-01-06T03:44:05;98715.81;;;-18.09;65.76
75045;BME280;63614;56.026;35.960;2024-01-06T03:46:33;98704.34;;;-18.15;66.21
75045;BME280;63614;56.026;35.960;2024-01-06T03:48:58;98720.03;;;-18.15;66.25
75045;BME280;63614;56.026;35.960;2024-01-06T03:51:24;98712.59;;;-18.15;65.64
75045;BME280;63614;56.026;35.960;2024-01-06T03:53:50;98711.97;;;-18.27;66.01
75045;BME280;63614;56.026;35.960;2024-01-06T03:56:16;98711.09;;;-18.25;65.85
75045;BME280;63614;56.026;35.960;2024-01-06T03:58:41;98702.09;;;-18.31;66.16
75045;BME280;63614;56.026;35.960;2024-01-06T04:01:07;98707.09;;;-18.34;66.72
75045;BME280;63614;56.026;35.960;2024-01-06T04:03:33;98715.38;;;-18.33;65.89
75045;BME280;63614;56.026;35.960;2024-01-06T04:05:59;98708.72;;;-18.30;66.55
75045;BME280;63614;56.026;35.960;2024-01-06T04:08:25;98704.50;;;-18.26;65.96
75045;BME280;63614;56.026;35.960;2024-01-06T04:10:51;98722.75;;;-18.29;66.02
75045;BME280;63614;56.026;35.960;2024-01-06T04:13:17;98711.53;;;-18.53;66.64
75045;BME280;63614;56.026;35.960;2024-01-06T04:15:42;98719.75;;;-18.49;66.98
75045;BME280;63614;56.026;35.960;2024-01-06T04:18:08;98722.03;;;-18.37;66.40
75045;BME280;63614;56.026;35.960;2024-01-06T04:20:35;98729.38;;;-18.29;66.70
75045;BME280;63614;56.026;35.960;2024-01-06T04:23:01;98724.75;;;-18.52;67.01
75045;BME280;63614;56.026;35.960;2024-01-06T04:25:27;98722.38;;;-18.58;67.58
75045;BME280;63614;56.026;35.960;2024-01-06T04:27:52;98726.78;;;-18.76;67.73
75045;BME280;63614;56.026;35.960;2024-01-06T04:30:19;98718.41;;;-18.70;68.11
75045;BME280;63614;56.026;35.960;2024-01-06T04:32:46;98725.78;;;-18.66;67.45
75045;BME280;63614;56.026;35.960;2024-01-06T04:35:14;98736.47;;;-18.60;67.40
75045;BME280;63614;56.026;35.960;2024-01-06T04:37:40;98739.16;;;-18.76;67.22
75045;BME280;63614;56.026;35.960;2024-01-06T04:40:07;98735.66;;;-18.61;67.58
75045;BME280;63614;56.026;35.960;2024-01-06T04:42:33;98736.38;;;-18.56;66.95
75045;BME280;63614;56.026;35.960;2024-01-06T04:44:59;98729.72;;;-18.52;66.77
75045;BME280;63614;56.026;35.960;2024-01-06T04:47:25;98731.25;;;-18.43;66.80
75045;BME280;63614;56.026;35.960;2024-01-06T04:49:53;98743.69;;;-18.47;66.77
75045;BME280;63614;56.026;35.960;2024-01-06T04:52:19;98736.97;;;-18.38;66.74
75045;BME280;63614;56.026;35.960;2024-01-06T04:54:45;98740.94;;;-18.28;66.87
75045;BME280;63614;56.026;35.960;2024-01-06T04:57:11;98738.34;;;-18.22;66.76
75045;BME280;63614;56.026;35.960;2024-01-06T04:59:37;98735.75;;;-18.14;66.69
75045;BME280;63614;56.026;35.960;2024-01-06T05:02:02;98733.22;;;-18.11;66.15
75045;BME280;63614;56.026;35.960;2024-01-06T05:04:28;98742.13;;;-17.98;66.29
75045;BME280;63614;56.026;35.960;2024-01-06T05:06:56;98738.66;;;-17.89;65.56
75045;BME280;63614;56.026;35.960;2024-01-06T05:09:21;98741.69;;;-17.76;65.73
75045;BME280;63614;56.026;35.960;2024-01-06T05:11:47;98731.75;;;-17.75;65.44
75045;BME280;63614;56.026;35.960;2024-01-06T05:14:13;98730.72;;;-17.64;65.81
75045;BME280;63614;56.026;35.960;2024-01-06T05:16:39;98730.78;;;-17.67;65.88
75045;BME280;63614;56.026;35.960;2024-01-06T05:19:05;98731.50;;;-17.61;66.25
75045;BME280;63614;56.026;35.960;2024-01-06T05:21:31;98733.53;;;-17.83;66.54
75045;BME280;63614;56.026;35.960;2024-01-06T05:23:57;98728.16;;;-17.60;66.18
75045;BME280;63614;56.026;35.960;2024-01-06T05:26:22;98727.38;;;-17.62;66.64
75045;BME280;63614;56.026;35.960;2024-01-06T05:28:49;98729.50;;;-17.43;66.31
75045;BME280;63614;56.026;35.960;2024-01-06T05:31:14;98731.06;;;-17.39;65.96
75045;BME280;63614;56.026;35.960;2024-01-06T05:33:40;98738.75;;;-17.50;67.00
75045;BME280;63614;56.026;35.960;2024-01-06T05:36:06;98729.16;;;-17.68;67.26
75045;BME280;63614;56.026;35.960;2024-01-06T05:38:32;98721.69;;;-17.68;67.21
75045;BME280;63614;56.026;35.960;2024-01-06T05:40:58;98712.59;;;-17.69;68.07
75045;BME280;63614;56.026;35.960;2024-01-06T05:43:24;98727.50;;;-17.69;68.36
75045;BME280;63614;56.026;35.960;2024-01-06T05:45:50;98722.63;;;-17.76;68.89
75045;BME280;63614;56.026;35.960;2024-01-06T05:48:16;98726.34;;;-17.51;67.86
75045;BME280;63614;56.026;35.960;2024-01-06T05:50:43;98729.75;;;-17.56;67.79
75045;BME280;63614;56.026;35.960;2024-01-06T05:53:09;98741.09;;;-17.44;67.86
75045;BME280;63614;56.026;35.960;2024-01-06T05:55:36;98741.53;;;-17.23;67.91
75045;BME280;63614;56.026;35.960;2024-01-06T05:58:02;98751.38;;;-17.17;67.72
75045;BME280;63614;56.026;35.960;2024-01-06T06:00:28;98749.72;;;-17.18;67.02
75045;BME280;63614;56.026;35.960;2024-01-06T06:02:58;98743.66;;;-17.05;66.45
75045;BME280;63614;56.026;35.960;2024-01-06T06:05:24;98741.13;;;-17.02;66.98
75045;BME280;63614;56.026;35.960;2024-01-06T06:07:50;98745.84;;;-16.89;65.82
75045;BME280;63614;56.026;35.960;2024-01-06T06:10:17;98741.66;;;-16.87;66.25
75045;BME280;63614;56.026;35.960;2024-01-06T06:12:44;98742.94;;;-16.72;66.54
75045;BME280;63614;56.026;35.960;2024-01-06T06:15:10;98737.44;;;-16.85;66.31
75045;BME280;63614;56.026;35.960;2024-01-06T06:17:36;98737.50;;;-16.88;66.10
75045;BME280;63614;56.026;35.960;2024-01-06T06:20:02;98735.88;;;-16.88;65.98
75045;BME280;63614;56.026;35.960;2024-01-06T06:22:29;98730.81;;;-16.86;66.17
75045;BME280;63614;56.026;35.960;2024-01-06T06:24:58;98744.09;;;-16.86;66.44
75045;BME280;63614;56.026;35.960;2024-01-06T06:27:25;98747.66;;;-16.60;66.45
75045;BME280;63614;56.026;35.960;2024-01-06T06:29:52;98740.88;;;-16.53;65.58
75045;BME280;63614;56.026;35.960;2024-01-06T06:32:18;98743.41;;;-16.55;65.03
75045;BME280;63614;56.026;35.960;2024-01-06T06:34:44;98753.84;;;-16.40;65.50
75045;BME280;63614;56.026;35.960;2024-01-06T06:37:10;98758.03;;;-16.41;65.51
75045;BME280;63614;56.026;35.960;2024-01-06T06:39:36;98755.59;;;-16.44;65.22
75045;BME280;63614;56.026;35.960;2024-01-06T06:42:02;98761.22;;;-16.36;64.67
75045;BME280;63614;56.026;35.960;2024-01-06T06:44:28;98750.66;;;-16.46;65.71
75045;BME280;63614;56.026;35.960;2024-01-06T06:46:57;98754.19;;;-16.56;65.97
75045;BME280;63614;56.026;35.960;2024-01-06T06:49:23;98766.16;;;-16.34;65.78
75045;BME280;63614;56.026;35.960;2024-01-06T06:51:49;98748.78;;;-16.36;65.62
75045;BME280;63614;56.026;35.960;2024-01-06T06:54:16;98750.28;;;-16.29;64.97
75045;BME280;63614;56.026;35.960;2024-01-06T06:56:42;98757.16;;;-16.40;65.33
75045;BME280;63614;56.026;35.960;2024-01-06T06:59:09;98760.00;;;-16.19;64.70
75045;BME280;63614;56.026;35.960;2024-01-06T07:01:35;98769.53;;;-16.37;65.54
75045;BME280;63614;56.026;35.960;2024-01-06T07:04:02;98765.25;;;-16.30;64.86
75045;BME280;63614;56.026;35.960;2024-01-06T07:06:28;98767.69;;;-16.27;64.82
75045;BME280;63614;56.026;35.960;2024-01-06T07:08:55;98765.28;;;-16.32;64.39
75045;BME280;63614;56.026;35.960;2024-01-06T07:11:21;98759.44;;;-16.31;65.15
75045;BME280;63614;56.026;35.960;2024-01-06T07:13:47;98763.34;;;-16.19;64.26
75045;BME280;63614;56.026;35.960;2024-01-06T07:16:13;98761.59;;;-16.15;64.66
75045;BME280;63614;56.026;35.960;2024-01-06T07:18:39;98767.19;;;-16.07;63.86
75045;BME280;63614;56.026;35.960;2024-01-06T07:21:05;98761.94;;;-15.95;64.49
75045;BME280;63614;56.026;35.960;2024-01-06T07:23:34;98765.38;;;-16.00;63.91
75045;BME280;63614;56.026;35.960;2024-01-06T07:26:00;98761.13;;;-15.95;63.62
75045;BME280;63614;56.026;35.960;2024-01-06T07:28:27;98758.22;;;-15.80;63.47
75045;BME280;63614;56.026;35.960;2024-01-06T07:30:53;98760.19;;;-15.91;63.92
75045;BME280;63614;56.026;35.960;2024-01-06T07:33:20;98757.75;;;-15.94;63.57
75045;BME280;63614;56.026;35.960;2024-01-06T07:35:47;98756.28;;;-16.01;64.04
75045;BME280;63614;56.026;35.960;2024-01-06T07:38:13;98745.25;;;-15.93;63.88
75045;BME280;63614;56.026;35.960;2024-01-06T07:40:39;98755.88;;;-15.86;64.24
75045;BME280;63614;56.026;35.960;2024-01-06T07:43:06;98752.66;;;-15.89;64.29
75045;BME280;63614;56.026;35.960;2024-01-06T07:45:32;98758.78;;;-15.70;64.49
75045;BME280;63614;56.026;35.960;2024-01-06T07:47:59;98756.47;;;-15.76;63.72
75045;BME280;63614;56.026;35.960;2024-01-06T07:50:25;98750.56;;;-15.74;64.18
75045;BME280;63614;56.026;35.960;2024-01-06T07:52:52;98746.47;;;-15.43;63.54
75045;BME280;63614;56.026;35.960;2024-01-06T07:55:18;98753.72;;;-15.34;63.04
75045;BME280;63614;56.026;35.960;2024-01-06T07:57:45;98751.53;;;-15.46;62.99
75045;BME280;63614;56.026;35.960;2024-01-06T08:00:12;98765.38;;;-15.34;63.23
75045;BME280;63614;56.026;35.960;2024-01-06T08:02:42;98750.03;;;-15.52;63.01
75045;BME280;63614;56.026;35.960;2024-01-06T08:05:08;98751.84;;;-15.27;63.90
75045;BME280;63614;56.026;35.960;2024-01-06T08:07:37;98755.13;;;-15.25;63.92
75045;BME280;63614;56.026;35.960;2024-01-06T08:10:03;98763.72;;;-15.04;63.81
75045;BME280;63614;56.026;35.960;2024-01-06T08:12:32;98753.94;;;-15.12;63.42
75045;BME280;63614;56.026;35.960;2024-01-06T08:14:58;98746.53;;;-15.15;63.52
75045;BME280;63614;56.026;35.960;2024-01-06T08:17:23;98750.16;;;-14.95;63.38
75045;BME280;63614;56.026;35.960;2024-01-06T08:19:49;98747.00;;;-15.02;63.69
75045;BME280;63614;56.026;35.960;2024-01-06T08:22:15;98744.91;;;-14.86;62.96
75045;BME280;63614;56.026;35.960;2024-01-06T08:24:41;98753.78;;;-14.77;62.68
75045;BME280;63614;56.026;35.960;2024-01-06T08:27:07;98757.78;;;-14.72;63.39
75045;BME280;63614;56.026;35.960;2024-01-06T08:29:33;98756.09;;;-14.71;63.57
75045;BME280;63614;56.026;35.960;2024-01-06T08:31:59;98745.41;;;-14.48;62.60
75045;BME280;63614;56.026;35.960;2024-01-06T08:34:24;98747.22;;;-14.53;62.30
75045;BME280;63614;56.026;35.960;2024-01-06T08:36:50;98753.22;;;-14.59;62.49
75045;BME280;63614;56.026;35.960;2024-01-06T08:39:17;98756.97;;;-14.46;62.48
75045;BME280;63614;56.026;35.960;2024-01-06T08:41:43;98751.59;;;-14.33;62.57
75045;BME280;63614;56.026;35.960;2024-01-06T08:44:09;98749.25;;;-14.38;61.69
75045;BME280;63614;56.026;35.960;2024-01-06T08:46:35;98750.63;;;-14.28;61.60
75045;BME280;63614;56.026;35.960;2024-01-06T08:49:01;98750.66;;;-14.29;62.07
75045;BME280;63614;56.026;35.960;2024-01-06T08:51:27;98757.28;;;-14.28;61.33
75045;BME280;63614;56.026;35.960;2024-01-06T08:53:53;98748.63;;;-14.45;62.22
75045;BME280;63614;56.026;35.960;2024-01-06T08:56:20;98758.75;;;-14.49;62.41
75045;BME280;63614;56.026;35.960;2024-01-06T08:58:46;98759.78;;;-14.28;62.15
75045;BME280;63614;56.026;35.960;2024-01-06T09:01:13;98751.69;;;-14.36;61.87
75045;BME280;63614;56.026;35.960;2024-01-06T09:03:39;98752.88;;;-14.47;62.70
75045;BME280;63614;56.026;35.960;2024-01-06T09:06:06;98749.34;;;-14.41;61.89
75045;BME280;63614;56.026;35.960;2024-01-06T09:08:31;98752.69;;;-14.40;62.10
75045;BME280;63614;56.026;35.960;2024-01-06T09:10:58;98742.09;;;-14.49;62.28
75045;BME280;63614;56.026;35.960;2024-01-06T09:13:25;98756.03;;;-14.15;62.17
75045;BME280;63614;56.026;35.960;2024-01-06T09:15:51;98753.41;;;-14.10;62.06
75045;BME280;63614;56.026;35.960;2024-01-06T09:18:17;98751.72;;;-14.10;61.54
75045;BME280;63614;56.026;35.960;2024-01-06T09:20:43;98756.66;;;-14.08;62.50
75045;BME280;63614;56.026;35.960;2024-01-06T09:23:09;98750.03;;;-14.09;61.96
75045;BME280;63614;56.026;35.960;2024-01-06T09:25:38;98746.91;;;-14.16;62.04
75045;BME280;63614;56.026;35.960;2024-01-06T09:28:05;98743.19;;;-14.04;62.24
75045;BME280;63614;56.026;35.960;2024-01-06T09:30:32;98753.47;;;-13.86;61.97
75045;BME280;63614;56.026;35.960;2024-01-06T09:32:58;98753.59;;;-13.91;61.38
75045;BME280;63614;56.026;35.960;2024-01-06T09:35:24;98755.06;;;-13.84;62.14
75045;BME280;63614;56.026;35.960;2024-01-06T09:37:50;98750.41;;;-13.69;61.63
75045;BME280;63614;56.026;35.960;2024-01-06T09:40:21;98750.50;;;-13.73;61.37
75045;BME280;63614;56.026;35.960;2024-01-06T09:42:49;98748.13;;;-13.76;61.83
75045;BME280;63614;56.026;35.960;2024-01-06T09:45:15;98740.91;;;-13.85;62.02
75045;BME280;63614;56.026;35.960;2024-01-06T09:47:41;98736.47;;;-14.02;62.27
75045;BME280;63614;56.026;35.960;2024-01-06T09:50:08;98742.19;;;-13.98;63.10
75045;BME280;63614;56.026;35.960;2024-01-06T09:52:40;98734.66;;;-14.23;63.50
75045;BME280;63614;56.026;35.960;2024-01-06T09:55:12;98736.25;;;-13.94;63.25
75045;BME280;63614;56.026;35.960;2024-01-06T09:57:38;98736.66;;;-14.08;63.79
75045;BME280;63614;56.026;35.960;2024-01-06T10:00:06;98731.09;;;-13.91;63.14
75045;BME280;63614;56.026;35.960;2024-01-06T10:02:37;98732.75;;;-13.90;62.53
75045;BME280;63614;56.026;35.960;2024-01-06T10:05:04;98738.56;;;-13.90;63.68
75045;BME280;63614;56.026;35.960;2024-01-06T10:07:30;98728.50;;;-13.88;63.22
75045;BME280;63614;56.026;35.960;2024-01-06T10:09:56;98737.59;;;-13.85;62.62
75045;BME280;63614;56.026;35.960;2024-01-06T10:12:25;98728.25;;;-13.80;62.83
75045;BME280;63614;56.026;35.960;2024-01-06T10:14:52;98721.16;;;-13.67;62.22
75045;BME280;63614;56.026;35.960;2024-01-06T10:17:18;98722.84;;;-13.43;62.25
75045;BME280;63614;56.026;35.960;2024-01-06T10:19:46;98733.00;;;-13.47;62.26
75045;BME280;63614;56.026;35.960;2024-01-06T10:22:13;98727.56;;;-13.35;61.69
75045;BME280;63614;56.026;35.960;2024-01-06T10:24:39;98729.94;;;-13.32;61.86
75045;BME280;63614;56.026;35.960;2024-01-06T10:27:05;98740.13;;;-13.37;61.65
75045;BME280;63614;56.026;35.960;2024-01-06T10:29:32;98718.25;;;-13.55;61.41
75045;BME280;63614;56.026;35.960;2024-01-06T10:31:58;98739.16;;;-13.58;61.82
75045;BME280;63614;56.026;35.960;2024-01-06T10:34:24;98732.63;;;-13.37;62.62
75045;BME280;63614;56.026;35.960;2024-01-06T10:36:51;98736.44;;;-13.28;62.26
75045;BME280;63614;56.026;35.960;2024-01-06T10:39:20;98739.34;;;-13.39;62.10
75045;BME280;63614;56.026;35.960;2024-01-06T10:41:50;98732.69;;;-13.38;62.37
75045;BME280;63614;56.026;35.960;2024-01-06T10:44:18;98732.69;;;-13.38;62.10
75045;BME280;63614;56.026;35.960;2024-01-06T10:46:44;98733.75;;;-13.45;63.01
75045;BME280;63614;56.026;35.960;2024-01-06T10:49:12;98743.34;;;-13.33;63.00
75045;BME280;63614;56.026;35.960;2024-01-06T10:51:39;98739.00;;;-13.06;62.24
75045;BME280;63614;56.026;35.960;2024-01-06T10:54:05;98742.00;;;-13.20;61.94
75045;BME280;63614;56.026;35.960;2024-01-06T10:56:37;98746.50;;;-13.29;62.13
75045;BME280;63614;56.026;35.960;2024-01-06T10:59:03;98735.97;;;-13.61;62.91
75045;BME280;63614;56.026;35.960;2024-01-06T11:01:31;98739.28;;;-13.61;63.70
75045;BME280;63614;56.026;35.960;2024-01-06T11:03:58;98743.75;;;-13.45;62.99
75045;BME280;63614;56.026;35.960;2024-01-06T11:06:25;98741.81;;;-13.37;62.79
75045;BME280;63614;56.026;35.960;2024-01-06T11:11:37;98739.47;;;-13.42;63.01
75045;BME280;63614;56.026;35.960;2024-01-06T11:14:27;98739.78;;;-13.51;63.26
75045;BME280;63614;56.026;35.960;2024-01-06T11:16:59;98736.63;;;-13.32;63.71
75045;BME280;63614;56.026;35.960;2024-01-06T11:22:28;98748.06;;;-13.25;63.19
75045;BME280;63614;56.026;35.960;2024-01-06T11:25:04;98747.78;;;-13.18;63.83
75045;BME280;63614;56.026;35.960;2024-01-06T11:27:32;98749.44;;;-13.18;62.49
75045;BME280;63614;56.026;35.960;2024-01-06T11:29:59;98750.72;;;-13.30;63.35
75045;BME280;63614;56.026;35.960;2024-01-06T11:32:33;98759.72;;;-13.26;63.29
75045;BME280;63614;56.026;35.960;2024-01-06T11:35:06;98755.16;;;-13.37;63.46
75045;BME280;63614;56.026;35.960;2024-01-06T11:43:08;98767.66;;;-13.62;64.45
75045;BME280;63614;56.026;35.960;2024-01-06T11:45:37;98760.50;;;-13.47;64.94
75045;BME280;63614;56.026;35.960;2024-01-06T11:48:05;98757.53;;;-13.33;64.11
75045;BME280;63614;56.026;35.960;2024-01-06T11:50:33;98763.41;;;-13.11;63.05
75045;BME280;63614;56.026;35.960;2024-01-06T11:53:00;98770.84;;;-13.09;62.97
75045;BME280;63614;56.026;35.960;2024-01-06T11:55:26;98771.75;;;-13.12;63.83
75045;BME280;63614;56.026;35.960;2024-01-06T11:57:58;98770.97;;;-13.12;63.35
75045;BME280;63614;56.026;35.960;2024-01-06T12:00:28;98767.13;;;-12.99;63.12
75045;BME280;63614;56.026;35.960;2024-01-06T12:02:58;98789.50;;;-12.94;62.80
75045;BME280;63614;56.026;35.960;2024-01-06T12:05:24;98783.38;;;-12.86;62.74
75045;BME280;63614;56.026;35.960;2024-01-06T12:07:54;98779.97;;;-12.85;62.10
75045;BME280;63614;56.026;35.960;2024-01-06T12:10:21;98786.19;;;-12.71;62.02
75045;BME280;63614;56.026;35.960;2024-01-06T12:13:04;98782.38;;;-12.82;62.05
75045;BME280;63614;56.026;35.960;2024-01-06T12:15:32;98796.75;;;-13.10;62.44
75045;BME280;63614;56.026;35.960;2024-01-06T12:17:58;98795.88;;;-13.09;63.21
75045;BME280;63614;56.026;35.960;2024-01-06T12:20:26;98809.69;;;-12.99;63.15
75045;BME280;63614;56.026;35.960;2024-01-06T12:22:55;98811.44;;;-13.01;63.04
75045;BME280;63614;56.026;35.960;2024-01-06T12:25:21;98802.56;;;-12.86;63.29
75045;BME280;63614;56.026;35.960;2024-01-06T12:27:48;98813.69;;;-12.93;62.98
75045;BME280;63614;56.026;35.960;2024-01-06T12:30:16;98813.91;;;-12.76;63.04
75045;BME280;63614;56.026;35.960;2024-01-06T12:32:49;98814.84;;;-12.56;62.68
75045;BME280;63614;56.026;35.960;2024-01-06T12:35:16;98805.81;;;-12.38;61.85
75045;BME280;63614;56.026;35.960;2024-01-06T12:37:42;98812.38;;;-12.34;62.04
75045;BME280;63614;56.026;35.960;2024-01-06T12:40:15;98812.34;;;-12.56;61.62
75045;BME280;63614;56.026;35.960;2024-01-06T12:42:45;98819.28;;;-12.63;62.26
75045;BME280;63614;56.026;35.960;2024-01-06T12:45:12;98822.09;;;-12.49;62.26
75045;BME280;63614;56.026;35.960;2024-01-06T12:47:38;98818.41;;;-12.40;61.50
75045;BME280;63614;56.026;35.960;2024-01-06T12:50:05;98824.44;;;-12.44;61.75